Bangor — FGE4786 — position and weather

sailwx.info

Track history (hours):
 
Tides and Currents Weather Stations Pressure Air Temp Water Temp Dewpoint Dewpoint Depression Visibility Wind Speed Wind Dir Waves Ship Positions

Bangor

Last reported at 2018-Feb-21 19:30 UTC. Time now 2018-Feb-21 19:36 UTC.
Position N 47°21' W 003°09'.

Length 46 m; draft 2.8 m.

Type: Passenger vessel. MMSI: 227644930.

Date/timePositionNaut miles runAvg speedWind from/ knotsBaromVisibWave heightAir tempDewpointWater temp
2018-Feb-21 19:30N 47°21' W 003°09'0 0.1
2018-Feb-21 18:59N 47°21' W 003°09'511.4
2018-Feb-21 18:30N 47°26' W 003°08'2 4.9
2018-Feb-21 18:00N 47°29' W 003°07'0 0.4
2018-Feb-21 17:30N 47°28' W 003°07'612.0
2018-Feb-21 17:00N 47°22' W 003°08'2 1.8
2018-Feb-21 16:03N 47°21' W 003°09'0 0.7
2018-Feb-21 16:00N 47°21' W 003°09'0 0.0
2018-Feb-21 09:58N 47°21' W 003°09'0 0.1
2018-Feb-21 09:18N 47°21' W 003°09'3 9.8
2018-Feb-21 09:00N 47°24' W 003°08'510.0
2018-Feb-21 08:30N 47°29' W 003°07'0 0.0
2018-Feb-21 08:00N 47°29' W 003°07'0 0.3
2018-Feb-21 07:30N 47°29' W 003°07'611.8
2018-Feb-21 07:00N 47°23' W 003°08'2 2.2
2018-Feb-21 06:08N 47°21' W 003°09'0 0.4
2018-Feb-21 06:00N 47°21' W 003°09'0 0.0
2018-Feb-20 19:33N 47°21' W 003°09'0 0.0
2018-Feb-20 19:31N 47°21' W 003°09'0 0.1
2018-Feb-20 19:00N 47°21' W 003°09'611.8
2018-Feb-20 18:30N 47°27' W 003°08'2 3.9
2018-Feb-20 18:00N 47°29' W 003°07'1 1.6
2018-Feb-20 17:30N 47°28' W 003°07'611.5
2018-Feb-20 17:00N 47°22' W 003°08'1 2.0
2018-Feb-20 16:16N 47°21' W 003°09'0 0.2
2018-Feb-20 16:00N 47°21' W 003°09'0 0.0
2018-Feb-20 09:51N 47°21' W 003°09'0 0.1
2018-Feb-20 09:15N 47°21' W 003°09'2 9.3
2018-Feb-20 09:01N 47°23' W 003°08'611.1
2018-Feb-20 08:30N 47°29' W 003°07'0 0.0
2018-Feb-20 08:01N 47°29' W 003°07'1 1.4
2018-Feb-20 07:30N 47°28' W 003°07'611.9
2018-Feb-20 07:00N 47°22' W 003°08'1 1.8
2018-Feb-20 06:16N 47°21' W 003°09'0 0.2
2018-Feb-20 06:00N 47°21' W 003°09'0 0.0
2018-Feb-19 19:27N 47°21' W 003°09'0 0.6
2018-Feb-19 18:58N 47°21' W 003°09'611.9
2018-Feb-19 18:30N 47°26' W 003°08'2 4.4
2018-Feb-19 18:00N 47°29' W 003°07'0 0.6
2018-Feb-19 17:31N 47°28' W 003°07'611.8
2018-Feb-19 17:01N 47°22' W 003°08'2 2.3
2018-Feb-19 16:13N 47°21' W 003°09'0 0.2
2018-Feb-19 16:01N 47°21' W 003°09'0 0.0
2018-Feb-19 09:52N 47°21' W 003°09'0 0.1
2018-Feb-19 09:20N 47°21' W 003°09'410.3
2018-Feb-19 08:59N 47°24' W 003°08'4 8.9
2018-Feb-19 08:30N 47°29' W 003°07'0 0.0
2018-Feb-19 08:00N 47°29' W 003°07'0 0.3
2018-Feb-19 07:31N 47°29' W 003°07'611.7
2018-Feb-19 07:00N 47°23' W 003°08'2 2.3
2018-Feb-19 06:10N 47°21' W 003°09'0 0.2
2018-Feb-19 05:59N 47°21' W 003°09'0 0.0
2018-Feb-18 19:25N 47°21' W 003°09'0 0.1
2018-Feb-18 19:00N 47°21' W 003°09'611.0
2018-Feb-18 18:29N 47°27' W 003°08'2 4.4
2018-Feb-18 18:00N 47°29' W 003°07'0 0.5
2018-Feb-18 17:30N 47°28' W 003°07'611.6
2018-Feb-18 17:00N 47°23' W 003°08'2 2.2
2018-Feb-18 16:09N 47°21' W 003°09'4 9.5
2018-Feb-18 15:43N 47°25' W 003°08'312.1
2018-Feb-18 15:30N 47°27' W 003°07'1 2.5
2018-Feb-18 15:00N 47°29' W 003°07'0 0.5
2018-Feb-18 14:30N 47°28' W 003°07'611.8
2018-Feb-18 14:00N 47°23' W 003°08'2 2.4
2018-Feb-18 13:15N 47°21' W 003°09'0 0.2
2018-Feb-18 13:00N 47°21' W 003°09'0 0.0
2018-Feb-17 19:26N 47°21' W 003°09'0 0.4
2018-Feb-17 19:00N 47°21' W 003°09'611.3
2018-Feb-17 18:30N 47°26' W 003°08'2 4.5
2018-Feb-17 18:00N 47°29' W 003°07'0 0.7
2018-Feb-17 17:31N 47°28' W 003°07'611.8
2018-Feb-17 17:00N 47°22' W 003°08'2 2.5
2018-Feb-17 16:19N 47°21' W 003°09'0 0.3
2018-Feb-17 16:00N 47°21' W 003°09'0 0.0
2018-Feb-17 09:45N 47°21' W 003°09'0 0.1
2018-Feb-17 09:16N 47°21' W 003°09'2 8.9
2018-Feb-17 09:00N 47°23' W 003°09'610.9
2018-Feb-17 08:30N 47°29' W 003°07'0 0.0
2018-Feb-17 08:00N 47°29' W 003°07'0 0.2
2018-Feb-17 07:30N 47°29' W 003°07'611.8
2018-Feb-17 07:00N 47°23' W 003°08'2 2.2
2018-Feb-17 06:07N 47°21' W 003°09'0 0.5
2018-Feb-17 06:00N 47°21' W 003°09'0 0.0
2018-Feb-16 18:59N 47°21' W 003°09'0 0.4
2018-Feb-16 18:30N 47°21' W 003°09'611.8
2018-Feb-16 18:00N 47°27' W 003°08'2 4.1
2018-Feb-16 17:31N 47°29' W 003°07'0 0.3
2018-Feb-16 17:01N 47°29' W 003°07'611.8
2018-Feb-16 16:30N 47°23' W 003°08'2 2.3
2018-Feb-16 15:42N 47°21' W 003°09'0 0.3
2018-Feb-16 15:30N 47°21' W 003°09'0 0.0
2018-Feb-16 10:56N 47°21' W 003°09'0 0.0
2018-Feb-16 09:19N 47°21' W 003°09'3 9.1
2018-Feb-16 09:00N 47°24' W 003°09'510.0
2018-Feb-16 08:31N 47°29' W 003°07'0 0.0
2018-Feb-16 08:00N 47°29' W 003°07'0 0.5
2018-Feb-16 07:30N 47°28' W 003°07'612.0
2018-Feb-16 07:00N 47°22' W 003°08'2 2.2
2018-Feb-16 06:15N 47°21' W 003°09'0 0.3
2018-Feb-16 06:01N 47°21' W 003°09'0 0.0
2018-Feb-15 19:27N 47°21' W 003°09'0 0.4
2018-Feb-15 19:00N 47°21' W 003°09'611.1
2018-Feb-15 18:30N 47°26' W 003°08'2 4.7
2018-Feb-15 18:00N 47°29' W 003°07'0 0.2
2018-Feb-15 17:31N 47°29' W 003°07'611.7
2018-Feb-15 17:00N 47°23' W 003°08'2 3.6
2018-Feb-15 16:27N 47°21' W 003°09'0 0.2
2018-Feb-15 16:00N 47°21' W 003°09'0 0.0
2018-Feb-15 09:49N 47°21' W 003°09'0 0.1
2018-Feb-15 09:22N 47°21' W 003°09'3 9.4
2018-Feb-15 09:00N 47°24' W 003°08'4 8.9
2018-Feb-15 08:30N 47°29' W 003°07'0 0.0
2018-Feb-15 07:59N 47°29' W 003°07'0 0.2
2018-Feb-15 07:30N 47°29' W 003°07'611.9
2018-Feb-15 07:00N 47°23' W 003°08'2 2.6
2018-Feb-15 06:17N 47°21' W 003°09'0 0.2
2018-Feb-15 06:00N 47°21' W 003°09'0 0.0
2018-Feb-14 19:24N 47°21' W 003°09'0 1.0
2018-Feb-14 19:00N 47°21' W 003°09'510.9
2018-Feb-14 18:31N 47°26' W 003°08'2 4.6
2018-Feb-14 18:00N 47°29' W 003°07'0 0.1
2018-Feb-14 17:31N 47°29' W 003°07'611.7
2018-Feb-14 17:01N 47°23' W 003°08'2 2.5
2018-Feb-14 16:13N 47°21' W 003°09'0 0.0
2018-Feb-14 10:19N 47°21' W 003°09'0 0.1
2018-Feb-14 09:33N 47°21' W 003°09'0 6.2
2018-Feb-14 09:30N 47°21' W 003°09'510.5
2018-Feb-14 08:59N 47°26' W 003°07'2 5.0
2018-Feb-14 08:30N 47°29' W 003°07'0 0.0
2018-Feb-14 08:00N 47°29' W 003°07'0 0.1
2018-Feb-14 07:30N 47°29' W 003°07'612.1
2018-Feb-14 07:00N 47°23' W 003°08'2 2.5
2018-Feb-14 06:17N 47°21' W 003°09'0 0.2
2018-Feb-14 06:00N 47°21' W 003°09'0 0.0
2018-Feb-13 19:25N 47°21' W 003°09'0 0.4
2018-Feb-13 19:00N 47°21' W 003°09'611.1
2018-Feb-13 18:30N 47°26' W 003°07'2 4.7
2018-Feb-13 18:00N 47°29' W 003°07'1 1.4
2018-Feb-13 17:30N 47°28' W 003°07'510.7
2018-Feb-13 17:00N 47°23' W 003°08'2 3.6
2018-Feb-13 16:30N 47°21' W 003°09'0 0.2
2018-Feb-13 16:00N 47°21' W 003°09'0 0.0
2018-Feb-13 10:13N 47°21' W 003°09'0 0.1
2018-Feb-13 09:46N 47°21' W 003°09'3 9.7
2018-Feb-13 09:28N 47°23' W 003°07'511.3
2018-Feb-13 09:01N 47°29' W 003°07'0 0.2
2018-Feb-13 08:30N 47°29' W 003°07'3 5.7
2018-Feb-13 08:00N 47°26' W 003°08'5 5.0
2018-Feb-13 07:01N 47°21' W 003°09'0 0.0
2018-Feb-12 19:29N 47°21' W 003°09'0 0.5
2018-Feb-12 19:00N 47°21' W 003°09'611.2
2018-Feb-12 18:30N 47°26' W 003°08'2 4.6
2018-Feb-12 18:00N 47°29' W 003°07'0 0.0
2018-Feb-12 17:30N 47°29' W 003°07'611.4
2018-Feb-12 17:00N 47°23' W 003°08'2 2.7
2018-Feb-12 16:09N 47°21' W 003°09'0 0.2
2018-Feb-12 15:57N 47°21' W 003°09'0 0.0
2018-Feb-12 09:56N 47°21' W 003°09'0 0.1
2018-Feb-12 09:19N 47°21' W 003°09'310.1
2018-Feb-12 09:00N 47°24' W 003°08'5 9.5
2018-Feb-12 08:30N 47°29' W 003°07'0 0.0
2018-Feb-12 08:00N 47°29' W 003°07'0 0.2
2018-Feb-12 07:31N 47°29' W 003°07'611.7
2018-Feb-12 07:00N 47°23' W 003°08'2 3.5
2018-Feb-12 06:27N 47°21' W 003°09'0 0.2
2018-Feb-12 06:00N 47°21' W 003°09'  
Track history (hours):
 
Tides and Currents Weather Stations Pressure Air Temp Water Temp Dewpoint Dewpoint Depression Visibility Wind Speed Wind Dir Waves Ship Positions

Bangor

Last reported at 2018-Feb-21 19:30 UTC. Time now 2018-Feb-21 19:36 UTC.
Position N 47°21' W 003°09'.

Length 46 m; draft 2.8 m.

Type: Passenger vessel. MMSI: 227644930.

Date/timePositionNaut miles runAvg speedWind from/ knotsBaromVisibWave heightAir tempDewpointWater temp
2018-Feb-21 19:30N 47°21' W 003°09'0 0.1
2018-Feb-21 18:59N 47°21' W 003°09'511.4
2018-Feb-21 18:30N 47°26' W 003°08'2 4.9
2018-Feb-21 18:00N 47°29' W 003°07'0 0.4
2018-Feb-21 17:30N 47°28' W 003°07'612.0
2018-Feb-21 17:00N 47°22' W 003°08'2 1.8
2018-Feb-21 16:03N 47°21' W 003°09'0 0.7
2018-Feb-21 16:00N 47°21' W 003°09'0 0.0
2018-Feb-21 09:58N 47°21' W 003°09'0 0.1
2018-Feb-21 09:18N 47°21' W 003°09'3 9.8
2018-Feb-21 09:00N 47°24' W 003°08'510.0
2018-Feb-21 08:30N 47°29' W 003°07'0 0.0
2018-Feb-21 08:00N 47°29' W 003°07'0 0.3
2018-Feb-21 07:30N 47°29' W 003°07'611.8
2018-Feb-21 07:00N 47°23' W 003°08'2 2.2
2018-Feb-21 06:08N 47°21' W 003°09'0 0.4
2018-Feb-21 06:00N 47°21' W 003°09'0 0.0
2018-Feb-20 19:33N 47°21' W 003°09'0 0.0
2018-Feb-20 19:31N 47°21' W 003°09'0 0.1
2018-Feb-20 19:00N 47°21' W 003°09'611.8
2018-Feb-20 18:30N 47°27' W 003°08'2 3.9
2018-Feb-20 18:00N 47°29' W 003°07'1 1.6
2018-Feb-20 17:30N 47°28' W 003°07'611.5
2018-Feb-20 17:00N 47°22' W 003°08'1 2.0
2018-Feb-20 16:16N 47°21' W 003°09'0 0.2
2018-Feb-20 16:00N 47°21' W 003°09'0 0.0
2018-Feb-20 09:51N 47°21' W 003°09'0 0.1
2018-Feb-20 09:15N 47°21' W 003°09'2 9.3
2018-Feb-20 09:01N 47°23' W 003°08'611.1
2018-Feb-20 08:30N 47°29' W 003°07'0 0.0
2018-Feb-20 08:01N 47°29' W 003°07'1 1.4
2018-Feb-20 07:30N 47°28' W 003°07'611.9
2018-Feb-20 07:00N 47°22' W 003°08'1 1.8
2018-Feb-20 06:16N 47°21' W 003°09'0 0.2
2018-Feb-20 06:00N 47°21' W 003°09'0 0.0
2018-Feb-19 19:27N 47°21' W 003°09'0 0.6
2018-Feb-19 18:58N 47°21' W 003°09'611.9
2018-Feb-19 18:30N 47°26' W 003°08'2 4.4
2018-Feb-19 18:00N 47°29' W 003°07'0 0.6
2018-Feb-19 17:31N 47°28' W 003°07'611.8
2018-Feb-19 17:01N 47°22' W 003°08'2 2.3
2018-Feb-19 16:13N 47°21' W 003°09'0 0.2
2018-Feb-19 16:01N 47°21' W 003°09'0 0.0
2018-Feb-19 09:52N 47°21' W 003°09'0 0.1
2018-Feb-19 09:20N 47°21' W 003°09'410.3
2018-Feb-19 08:59N 47°24' W 003°08'4 8.9
2018-Feb-19 08:30N 47°29' W 003°07'0 0.0
2018-Feb-19 08:00N 47°29' W 003°07'0 0.3
2018-Feb-19 07:31N 47°29' W 003°07'611.7
2018-Feb-19 07:00N 47°23' W 003°08'2 2.3
2018-Feb-19 06:10N 47°21' W 003°09'0 0.2
2018-Feb-19 05:59N 47°21' W 003°09'0 0.0
2018-Feb-18 19:25N 47°21' W 003°09'0 0.1
2018-Feb-18 19:00N 47°21' W 003°09'611.0
2018-Feb-18 18:29N 47°27' W 003°08'2 4.4
2018-Feb-18 18:00N 47°29' W 003°07'0 0.5
2018-Feb-18 17:30N 47°28' W 003°07'611.6
2018-Feb-18 17:00N 47°23' W 003°08'2 2.2
2018-Feb-18 16:09N 47°21' W 003°09'4 9.5
2018-Feb-18 15:43N 47°25' W 003°08'312.1
2018-Feb-18 15:30N 47°27' W 003°07'1 2.5
2018-Feb-18 15:00N 47°29' W 003°07'0 0.5
2018-Feb-18 14:30N 47°28' W 003°07'611.8
2018-Feb-18 14:00N 47°23' W 003°08'2 2.4
2018-Feb-18 13:15N 47°21' W 003°09'0 0.2
2018-Feb-18 13:00N 47°21' W 003°09'0 0.0
2018-Feb-17 19:26N 47°21' W 003°09'0 0.4
2018-Feb-17 19:00N 47°21' W 003°09'611.3
2018-Feb-17 18:30N 47°26' W 003°08'2 4.5
2018-Feb-17 18:00N 47°29' W 003°07'0 0.7
2018-Feb-17 17:31N 47°28' W 003°07'611.8
2018-Feb-17 17:00N 47°22' W 003°08'2 2.5
2018-Feb-17 16:19N 47°21' W 003°09'0 0.3
2018-Feb-17 16:00N 47°21' W 003°09'0 0.0
2018-Feb-17 09:45N 47°21' W 003°09'0 0.1
2018-Feb-17 09:16N 47°21' W 003°09'2 8.9
2018-Feb-17 09:00N 47°23' W 003°09'610.9
2018-Feb-17 08:30N 47°29' W 003°07'0 0.0
2018-Feb-17 08:00N 47°29' W 003°07'0 0.2
2018-Feb-17 07:30N 47°29' W 003°07'611.8
2018-Feb-17 07:00N 47°23' W 003°08'2 2.2
2018-Feb-17 06:07N 47°21' W 003°09'0 0.5
2018-Feb-17 06:00N 47°21' W 003°09'0 0.0
2018-Feb-16 18:59N 47°21' W 003°09'0 0.4
2018-Feb-16 18:30N 47°21' W 003°09'611.8
2018-Feb-16 18:00N 47°27' W 003°08'2 4.1
2018-Feb-16 17:31N 47°29' W 003°07'0 0.3
2018-Feb-16 17:01N 47°29' W 003°07'611.8
2018-Feb-16 16:30N 47°23' W 003°08'2 2.3
2018-Feb-16 15:42N 47°21' W 003°09'0 0.3
2018-Feb-16 15:30N 47°21' W 003°09'0 0.0
2018-Feb-16 10:56N 47°21' W 003°09'0 0.0
2018-Feb-16 09:19N 47°21' W 003°09'3 9.1
2018-Feb-16 09:00N 47°24' W 003°09'510.0
2018-Feb-16 08:31N 47°29' W 003°07'0 0.0
2018-Feb-16 08:00N 47°29' W 003°07'0 0.5
2018-Feb-16 07:30N 47°28' W 003°07'612.0
2018-Feb-16 07:00N 47°22' W 003°08'2 2.2
2018-Feb-16 06:15N 47°21' W 003°09'0 0.3
2018-Feb-16 06:01N 47°21' W 003°09'0 0.0
2018-Feb-15 19:27N 47°21' W 003°09'0 0.4
2018-Feb-15 19:00N 47°21' W 003°09'611.1
2018-Feb-15 18:30N 47°26' W 003°08'2 4.7
2018-Feb-15 18:00N 47°29' W 003°07'0 0.2
2018-Feb-15 17:31N 47°29' W 003°07'611.7
2018-Feb-15 17:00N 47°23' W 003°08'2 3.6
2018-Feb-15 16:27N 47°21' W 003°09'0 0.2
2018-Feb-15 16:00N 47°21' W 003°09'0 0.0
2018-Feb-15 09:49N 47°21' W 003°09'0 0.1
2018-Feb-15 09:22N 47°21' W 003°09'3 9.4
2018-Feb-15 09:00N 47°24' W 003°08'4 8.9
2018-Feb-15 08:30N 47°29' W 003°07'0 0.0
2018-Feb-15 07:59N 47°29' W 003°07'0 0.2
2018-Feb-15 07:30N 47°29' W 003°07'611.9
2018-Feb-15 07:00N 47°23' W 003°08'2 2.6
2018-Feb-15 06:17N 47°21' W 003°09'0 0.2
2018-Feb-15 06:00N 47°21' W 003°09'0 0.0
2018-Feb-14 19:24N 47°21' W 003°09'0 1.0
2018-Feb-14 19:00N 47°21' W 003°09'510.9
2018-Feb-14 18:31N 47°26' W 003°08'2 4.6
2018-Feb-14 18:00N 47°29' W 003°07'0 0.1
2018-Feb-14 17:31N 47°29' W 003°07'611.7
2018-Feb-14 17:01N 47°23' W 003°08'2 2.5
2018-Feb-14 16:13N 47°21' W 003°09'0 0.0
2018-Feb-14 10:19N 47°21' W 003°09'0 0.1
2018-Feb-14 09:33N 47°21' W 003°09'0 6.2
2018-Feb-14 09:30N 47°21' W 003°09'510.5
2018-Feb-14 08:59N 47°26' W 003°07'2 5.0
2018-Feb-14 08:30N 47°29' W 003°07'0 0.0
2018-Feb-14 08:00N 47°29' W 003°07'0 0.1
2018-Feb-14 07:30N 47°29' W 003°07'612.1
2018-Feb-14 07:00N 47°23' W 003°08'2 2.5
2018-Feb-14 06:17N 47°21' W 003°09'0 0.2
2018-Feb-14 06:00N 47°21' W 003°09'0 0.0
2018-Feb-13 19:25N 47°21' W 003°09'0 0.4
2018-Feb-13 19:00N 47°21' W 003°09'611.1
2018-Feb-13 18:30N 47°26' W 003°07'2 4.7
2018-Feb-13 18:00N 47°29' W 003°07'1 1.4
2018-Feb-13 17:30N 47°28' W 003°07'510.7
2018-Feb-13 17:00N 47°23' W 003°08'2 3.6
2018-Feb-13 16:30N 47°21' W 003°09'0 0.2
2018-Feb-13 16:00N 47°21' W 003°09'0 0.0
2018-Feb-13 10:13N 47°21' W 003°09'0 0.1
2018-Feb-13 09:46N 47°21' W 003°09'3 9.7
2018-Feb-13 09:28N 47°23' W 003°07'511.3
2018-Feb-13 09:01N 47°29' W 003°07'0 0.2
2018-Feb-13 08:30N 47°29' W 003°07'3 5.7
2018-Feb-13 08:00N 47°26' W 003°08'5 5.0
2018-Feb-13 07:01N 47°21' W 003°09'0 0.0
2018-Feb-12 19:29N 47°21' W 003°09'0 0.5
2018-Feb-12 19:00N 47°21' W 003°09'611.2
2018-Feb-12 18:30N 47°26' W 003°08'2 4.6
2018-Feb-12 18:00N 47°29' W 003°07'0 0.0
2018-Feb-12 17:30N 47°29' W 003°07'611.4
2018-Feb-12 17:00N 47°23' W 003°08'2 2.7
2018-Feb-12 16:09N 47°21' W 003°09'0 0.2
2018-Feb-12 15:57N 47°21' W 003°09'0 0.0
2018-Feb-12 09:56N 47°21' W 003°09'0 0.1
2018-Feb-12 09:19N 47°21' W 003°09'310.1
2018-Feb-12 09:00N 47°24' W 003°08'5 9.5
2018-Feb-12 08:30N 47°29' W 003°07'0 0.0
2018-Feb-12 08:00N 47°29' W 003°07'0 0.2
2018-Feb-12 07:31N 47°29' W 003°07'611.7
2018-Feb-12 07:00N 47°23' W 003°08'2 3.5
2018-Feb-12 06:27N 47°21' W 003°09'0 0.2
2018-Feb-12 06:00N 47°21' W 003°09'  

Dump ship's entire track history